Time;durP1;ratioP1;P1;durP2;ratioP2;P2;SDS_P1;SDS_P2;PMS_P1;PMS_P2;Temp;Humidity;BMP_temperature;BMP_pressure;BME280_temperature;BME280_humidity;BME280_pressure;Samples;Min_cycle;Max_cycle;Signal;HPM_P1;HPM_P2
2021/03/01 00:02:07;;;;;;;;;;;4.30;99.90;;;;;;4446186;32;19951;-75
2021/03/01 00:04:33;;;;;;;;;;;4.40;99.90;;;;;;4446369;32;19955;-75
2021/03/01 00:06:58;;;;;;;;;;;4.20;99.90;;;;;;4446382;32;20296;-75
2021/03/01 00:09:24;;;;;;;;;;;4.10;99.90;;;;;;4435202;32;20004;-75
2021/03/01 00:11:49;;;;;;;;;;;4.00;99.90;;;;;;4430149;32;19999;-75
2021/03/01 00:14:14;;;;;;;;;;;3.90;99.90;;;;;;4443670;32;20000;-75
2021/03/01 00:16:40;;;;;;;;;;;3.90;99.90;;;;;;4445481;32;20369;-75
2021/03/01 00:19:05;;;;;;;;;;;3.90;99.90;;;;;;4446018;32;20373;-75
2021/03/01 00:21:31;;;;;;;;;;;3.90;99.90;;;;;;4445896;32;20260;-75
2021/03/01 00:23:56;;;;;;;;;;;3.90;99.90;;;;;;4445791;32;20315;-75
2021/03/01 00:26:22;;;;;;;;;;;3.90;99.90;;;;;;4445392;32;19949;-75
2021/03/01 00:28:47;;;;;;;;;;;3.90;99.90;;;;;;4446067;32;19944;-75
2021/03/01 00:31:12;;;;;;;;;;;3.90;99.90;;;;;;4445105;32;19997;-75
2021/03/01 00:33:38;;;;;;;;;;;3.90;99.90;;;;;;4445241;32;20291;-75
2021/03/01 00:36:03;;;;;;;;;;;3.90;99.90;;;;;;4445368;32;19952;-75
2021/03/01 00:38:29;;;;;;;;;;;4.00;99.90;;;;;;4445878;32;20153;-75
2021/03/01 00:40:54;;;;;;;;;;;3.90;99.90;;;;;;4444838;32;19994;-75
2021/03/01 00:43:20;;;;;;;;;;;3.90;99.90;;;;;;4444811;32;20183;-75
2021/03/01 00:45:45;;;;;;;;;;;3.90;99.90;;;;;;4445737;32;19953;-75
2021/03/01 00:48:10;;;;;;;;;;;4.00;99.90;;;;;;4444977;32;20007;-75
2021/03/01 00:50:36;;;;;;;;;;;4.00;99.90;;;;;;4445003;32;20291;-75
2021/03/01 00:53:01;;;;;;;;;;;4.00;99.90;;;;;;4445563;32;19959;-75
2021/03/01 00:55:27;;;;;;;;;;;4.10;99.90;;;;;;4445304;32;20384;-75
2021/03/01 00:57:52;;;;;;;;;;;4.20;99.90;;;;;;4445941;32;19963;-75
2021/03/01 01:00:18;;;;;;;;;;;4.10;99.90;;;;;;4444909;32;20288;-75
2021/03/01 01:02:44;;;;;;;;;;;4.20;99.90;;;;;;4445304;32;20035;-75
2021/03/01 01:05:09;;;;;;;;;;;4.20;99.90;;;;;;4444323;32;19966;-75
2021/03/01 01:07:35;;;;;;;;;;;4.20;99.90;;;;;;4445268;32;19944;-75
2021/03/01 01:10:01;;;;;;;;;;;4.10;99.90;;;;;;4430561;32;20326;-75
2021/03/01 01:12:26;;;;;;;;;;;4.10;99.90;;;;;;4430914;32;19961;-75
2021/03/01 01:14:52;;;;;;;;;;;4.20;99.90;;;;;;4444913;32;20576;-75
2021/03/01 01:17:17;;;;;;;;;;;4.20;99.90;;;;;;4445143;32;20295;-75
2021/03/01 01:19:43;;;;;;;;;;;4.20;99.90;;;;;;4445025;32;19975;-75
2021/03/01 01:22:08;;;;;;;;;;;4.20;99.90;;;;;;4444972;32;19941;-75
2021/03/01 01:24:34;;;;;;;;;;;4.30;99.90;;;;;;4445103;32;19958;-75
2021/03/01 01:26:59;;;;;;;;;;;4.30;99.90;;;;;;4445042;32;19967;-75
2021/03/01 01:29:25;;;;;;;;;;;4.30;99.90;;;;;;4444444;32;19955;-75
2021/03/01 01:31:50;;;;;;;;;;;4.30;99.90;;;;;;4444580;32;19965;-75
2021/03/01 01:34:16;;;;;;;;;;;4.20;99.90;;;;;;4445150;32;19957;-75
2021/03/01 01:36:41;;;;;;;;;;;4.30;99.90;;;;;;4444490;32;20000;-75
2021/03/01 01:39:06;;;;;;;;;;;4.30;99.90;;;;;;4445174;32;19952;-74
2021/03/01 01:41:32;;;;;;;;;;;4.30;99.90;;;;;;4444660;32;20417;-74
2021/03/01 01:43:57;;;;;;;;;;;4.20;99.90;;;;;;4445065;32;19955;-75
2021/03/01 01:46:23;;;;;;;;;;;4.10;99.90;;;;;;4444702;32;20279;-75
2021/03/01 01:48:48;;;;;;;;;;;4.10;99.90;;;;;;4444803;32;19948;-75
2021/03/01 01:51:14;;;;;;;;;;;4.20;99.90;;;;;;4444677;32;19947;-75
2021/03/01 01:53:39;;;;;;;;;;;4.20;99.90;;;;;;4444719;32;19955;-74
2021/03/01 01:56:05;;;;;;;;;;;4.30;99.90;;;;;;4445051;32;20401;-75
2021/03/01 01:58:30;;;;;;;;;;;4.40;99.90;;;;;;4444547;32;19944;-75
2021/03/01 02:00:56;;;;;;;;;;;4.30;99.90;;;;;;4444261;32;20011;-75
2021/03/01 02:03:24;;;;;;;;;;;4.20;99.90;;;;;;4444259;32;19944;-75
2021/03/01 02:05:51;;;;;;;;;;;4.20;99.90;;;;;;4444359;32;19948;-75
2021/03/01 02:08:21;;;;;;;;;;;4.30;99.90;;;;;;4440856;32;19941;-75
2021/03/01 02:10:50;;;;;;;;;;;4.30;99.90;;;;;;4429049;32;19953;-75
2021/03/01 02:13:34;;;;;;;;;;;4.40;99.90;;;;;;4435376;32;19941;-75
2021/03/01 02:16:03;;;;;;;;;;;4.30;99.90;;;;;;4444203;32;19949;-75
2021/03/01 02:18:28;;;;;;;;;;;4.20;99.90;;;;;;4432031;32;19936;-74
2021/03/01 02:20:54;;;;;;;;;;;4.20;99.90;;;;;;4429290;32;19948;-75
2021/03/01 02:23:20;;;;;;;;;;;4.10;99.90;;;;;;4428418;32;19960;-75
2021/03/01 02:25:49;;;;;;;;;;;4.10;99.90;;;;;;4428784;32;19949;-74
2021/03/01 02:28:16;;;;;;;;;;;4.10;99.90;;;;;;4429237;32;19948;-75
2021/03/01 02:30:45;;;;;;;;;;;4.10;99.90;;;;;;4428333;32;19969;-75
2021/03/01 02:33:13;;;;;;;;;;;4.20;99.90;;;;;;4428873;32;19956;-75
2021/03/01 02:35:41;;;;;;;;;;;4.20;99.90;;;;;;4428713;32;19994;-74
2021/03/01 02:38:08;;;;;;;;;;;4.30;99.90;;;;;;4428993;32;19956;-75
2021/03/01 02:40:34;;;;;;;;;;;4.20;99.90;;;;;;4428815;32;19945;-74
2021/03/01 02:43:00;;;;;;;;;;;4.20;99.90;;;;;;4427655;32;19968;-74
2021/03/01 02:45:26;;;;;;;;;;;4.10;99.90;;;;;;4429029;32;19949;-75
2021/03/01 02:47:52;;;;;;;;;;;4.20;99.90;;;;;;4429147;32;19955;-75
2021/03/01 02:50:18;;;;;;;;;;;4.30;99.90;;;;;;4428360;32;19964;-75
2021/03/01 02:52:44;;;;;;;;;;;4.30;99.90;;;;;;4428407;32;19968;-75
2021/03/01 02:55:11;;;;;;;;;;;4.30;99.90;;;;;;4428720;32;19948;-75
2021/03/01 02:57:37;;;;;;;;;;;4.30;99.90;;;;;;4428494;32;19958;-75
2021/03/01 03:00:05;;;;;;;;;;;4.30;99.90;;;;;;4428054;32;19963;-75
2021/03/01 03:02:31;;;;;;;;;;;4.10;99.90;;;;;;4428067;32;20004;-74
2021/03/01 03:04:57;;;;;;;;;;;4.00;99.90;;;;;;4428270;32;19960;-75
2021/03/01 03:07:23;;;;;;;;;;;4.10;99.90;;;;;;4428749;32;19945;-75
2021/03/01 03:09:49;;;;;;;;;;;4.10;99.90;;;;;;4441307;32;20300;-75
2021/03/01 03:12:14;;;;;;;;;;;4.20;99.90;;;;;;4443081;32;19936;-75
2021/03/01 03:14:41;;;;;;;;;;;4.30;99.90;;;;;;4428148;32;19952;-75
2021/03/01 03:17:06;;;;;;;;;;;4.30;99.90;;;;;;4428138;32;19952;-75
2021/03/01 03:19:32;;;;;;;;;;;4.30;99.90;;;;;;4428218;32;19949;-75
2021/03/01 03:21:58;;;;;;;;;;;4.30;99.90;;;;;;4428896;32;19971;-75
2021/03/01 03:24:23;;;;;;;;;;;4.20;99.90;;;;;;4427949;32;19968;-75
2021/03/01 03:26:49;;;;;;;;;;;4.30;99.90;;;;;;4427944;32;19949;-75
2021/03/01 03:29:15;;;;;;;;;;;4.20;99.90;;;;;;4430904;32;19961;-75
2021/03/01 03:31:40;;;;;;;;;;;4.20;99.90;;;;;;4430795;32;19955;-75
2021/03/01 03:34:06;;;;;;;;;;;4.20;99.90;;;;;;4431078;32;19953;-75
2021/03/01 03:36:35;;;;;;;;;;;4.20;99.90;;;;;;4430879;32;19949;-75
2021/03/01 03:39:05;;;;;;;;;;;4.20;99.90;;;;;;4430743;32;19953;-75
2021/03/01 03:41:31;;;;;;;;;;;4.30;99.90;;;;;;4431354;32;19945;-74
2021/03/01 03:43:57;;;;;;;;;;;4.30;99.90;;;;;;4430230;32;19946;-75
2021/03/01 03:46:25;;;;;;;;;;;4.30;99.90;;;;;;4430580;32;19944;-75
2021/03/01 03:48:51;;;;;;;;;;;4.30;99.90;;;;;;4430602;32;19968;-75
2021/03/01 03:51:18;;;;;;;;;;;4.30;99.90;;;;;;4431121;32;19945;-75
2021/03/01 03:53:48;;;;;;;;;;;4.30;99.90;;;;;;4430715;32;19961;-75
2021/03/01 03:56:14;;;;;;;;;;;4.20;99.90;;;;;;4430644;32;19948;-74
2021/03/01 03:58:44;;;;;;;;;;;4.30;99.90;;;;;;4430473;32;19955;-75
2021/03/01 04:01:12;;;;;;;;;;;4.30;99.90;;;;;;4430302;32;20089;-75
2021/03/01 04:03:37;;;;;;;;;;;4.40;99.90;;;;;;4430229;32;20009;-75
2021/03/01 04:06:04;;;;;;;;;;;4.30;99.90;;;;;;4430472;32;19945;-75
2021/03/01 04:08:31;;;;;;;;;;;4.30;99.90;;;;;;4435218;32;20020;-75
2021/03/01 04:10:58;;;;;;;;;;;4.40;99.90;;;;;;4445593;32;19951;-74
2021/03/01 04:13:26;;;;;;;;;;;4.40;99.90;;;;;;4437674;32;19949;-75
2021/03/01 04:15:51;;;;;;;;;;;4.30;99.90;;;;;;4430309;32;19945;-75
2021/03/01 04:18:19;;;;;;;;;;;4.20;99.90;;;;;;4430361;32;19952;-75
2021/03/01 04:20:45;;;;;;;;;;;4.20;99.90;;;;;;4429771;32;19945;-75
2021/03/01 04:23:11;;;;;;;;;;;4.30;99.90;;;;;;4430471;32;19966;-75
2021/03/01 04:25:37;;;;;;;;;;;4.40;99.90;;;;;;4431121;32;19945;-74
2021/03/01 04:28:02;;;;;;;;;;;4.40;99.90;;;;;;4430402;32;19955;-75
2021/03/01 04:30:28;;;;;;;;;;;4.40;99.90;;;;;;4429893;32;19941;-75
2021/03/01 04:32:54;;;;;;;;;;;4.40;99.90;;;;;;4429891;32;20001;-74
2021/03/01 04:35:21;;;;;;;;;;;4.40;99.90;;;;;;4429924;32;19948;-74
2021/03/01 04:37:47;;;;;;;;;;;4.50;99.90;;;;;;4430600;32;20363;-74
2021/03/01 04:40:13;;;;;;;;;;;4.40;99.90;;;;;;4430340;32;19949;-75
2021/03/01 04:42:40;;;;;;;;;;;4.30;99.90;;;;;;4429655;32;19957;-74
2021/03/01 04:45:06;;;;;;;;;;;4.30;99.90;;;;;;4429459;32;19998;-74
2021/03/01 04:47:32;;;;;;;;;;;4.30;99.90;;;;;;4429845;32;19949;-74
2021/03/01 04:49:58;;;;;;;;;;;4.30;99.90;;;;;;4430056;32;19948;-74
2021/03/01 04:52:24;;;;;;;;;;;4.30;99.90;;;;;;4430297;32;19949;-74
2021/03/01 04:54:50;;;;;;;;;;;4.10;99.90;;;;;;4429249;32;20284;-74
2021/03/01 04:57:15;;;;;;;;;;;4.10;99.90;;;;;;4429969;32;19956;-75
2021/03/01 04:59:41;;;;;;;;;;;4.10;99.90;;;;;;4429149;32;19998;-74
2021/03/01 05:02:08;;;;;;;;;;;4.20;99.90;;;;;;4429616;32;19951;-74
2021/03/01 05:04:33;;;;;;;;;;;4.20;99.90;;;;;;4429222;32;19956;-74
2021/03/01 05:06:59;;;;;;;;;;;4.20;99.90;;;;;;4430034;32;19949;-74
2021/03/01 05:09:25;;;;;;;;;;;4.20;99.90;;;;;;4440307;32;19952;-74
2021/03/01 05:11:50;;;;;;;;;;;4.30;99.90;;;;;;4445374;32;20313;-74
2021/03/01 05:14:15;;;;;;;;;;;4.40;99.90;;;;;;4431893;32;19995;-74
2021/03/01 05:16:41;;;;;;;;;;;4.30;99.90;;;;;;4429736;32;19960;-74
2021/03/01 05:19:06;;;;;;;;;;;4.30;99.90;;;;;;4429424;32;20252;-74
2021/03/01 05:21:32;;;;;;;;;;;4.20;99.90;;;;;;4430004;32;19948;-74
2021/03/01 05:23:57;;;;;;;;;;;4.20;99.90;;;;;;4429233;32;19946;-74
2021/03/01 05:26:23;;;;;;;;;;;4.30;99.90;;;;;;4429171;32;20170;-74
2021/03/01 05:28:48;;;;;;;;;;;4.30;99.90;;;;;;4429720;32;19945;-74
2021/03/01 05:31:14;;;;;;;;;;;4.30;99.90;;;;;;4429110;32;20431;-74
2021/03/01 05:33:40;;;;;;;;;;;4.20;99.90;;;;;;4429692;32;19945;-75
2021/03/01 05:36:05;;;;;;;;;;;4.20;99.90;;;;;;4429477;32;20045;-75
2021/03/01 05:38:31;;;;;;;;;;;4.20;99.90;;;;;;4429337;32;20034;-75
2021/03/01 05:40:57;;;;;;;;;;;4.20;99.90;;;;;;4428908;32;20003;-75
2021/03/01 05:43:25;;;;;;;;;;;4.20;99.90;;;;;;4429514;32;20001;-76
2021/03/01 05:45:51;;;;;;;;;;;4.20;99.90;;;;;;4429217;32;19952;-75
2021/03/01 05:48:18;;;;;;;;;;;4.20;99.90;;;;;;4429661;32;19990;-75
2021/03/01 05:50:43;;;;;;;;;;;4.20;99.90;;;;;;4436215;32;19953;-75
2021/03/01 05:53:12;;;;;;;;;;;4.20;99.90;;;;;;4430984;32;19948;-75
2021/03/01 05:55:37;;;;;;;;;;;4.10;99.90;;;;;;4429669;32;19959;-75
2021/03/01 05:58:03;;;;;;;;;;;4.20;99.90;;;;;;4429612;32;19945;-75
2021/03/01 06:00:28;;;;;;;;;;;4.20;99.90;;;;;;4428894;32;20358;-75
2021/03/01 06:02:56;;;;;;;;;;;4.30;99.90;;;;;;4431265;32;20323;-75
2021/03/01 06:05:22;;;;;;;;;;;4.30;99.90;;;;;;4443404;32;19945;-75
2021/03/01 06:07:47;;;;;;;;;;;4.30;99.90;;;;;;4442971;32;20004;-75
2021/03/01 06:10:13;;;;;;;;;;;4.30;99.90;;;;;;4428829;32;19956;-75
2021/03/01 06:12:38;;;;;;;;;;;4.20;99.90;;;;;;4431070;32;19997;-75
2021/03/01 06:15:04;;;;;;;;;;;4.20;99.90;;;;;;4428967;32;20283;-75
2021/03/01 06:17:30;;;;;;;;;;;4.30;99.90;;;;;;4429637;32;20287;-75
2021/03/01 06:19:56;;;;;;;;;;;4.30;99.90;;;;;;4428279;32;19959;-75
2021/03/01 06:22:23;;;;;;;;;;;4.40;99.90;;;;;;4439721;32;20310;-75
2021/03/01 06:25:08;;;;;;;;;;;4.30;99.90;;;;;;4428816;32;19956;-76
2021/03/01 06:27:50;;;;;;;;;;;4.30;99.90;;;;;;4419004;32;20010;-75
2021/03/01 06:30:17;;;;;;;;;;;4.30;99.90;;;;;;4437855;32;19951;-75
2021/03/01 06:32:42;;;;;;;;;;;4.40;99.90;;;;;;4436965;32;19945;-74
2021/03/01 06:35:28;;;;;;;;;;;4.40;99.90;;;;;;4430758;32;19956;-74
2021/03/01 06:38:13;;;;;;;;;;;4.40;99.90;;;;;;4418736;32;19995;-75
2021/03/01 06:40:39;;;;;;;;;;;4.40;99.90;;;;;;4432508;32;19949;-75
2021/03/01 06:43:12;;;;;;;;;;;4.50;99.90;;;;;;4443126;32;19951;-74
2021/03/01 06:45:38;;;;;;;;;;;4.40;99.90;;;;;;4440945;32;19948;-75
2021/03/01 06:48:04;;;;;;;;;;;4.50;99.90;;;;;;4430551;32;19955;-76
2021/03/01 06:50:32;;;;;;;;;;;4.40;99.90;;;;;;4431990;32;19949;-75
2021/03/01 06:52:58;;;;;;;;;;;4.40;99.90;;;;;;4429342;32;20155;-75
2021/03/01 06:55:24;;;;;;;;;;;4.50;99.90;;;;;;4435081;32;19990;-74
2021/03/01 06:57:49;;;;;;;;;;;4.40;99.90;;;;;;4438924;32;19972;-74
2021/03/01 07:00:21;;;;;;;;;;;4.50;99.90;;;;;;4433761;32;19944;-74
2021/03/01 07:02:46;;;;;;;;;;;4.50;99.90;;;;;;4436286;32;20015;-74
2021/03/01 07:05:12;;;;;;;;;;;4.60;99.90;;;;;;4438497;32;20383;-74
2021/03/01 07:07:37;;;;;;;;;;;4.70;99.90;;;;;;4441865;32;20002;-74
2021/03/01 07:10:03;;;;;;;;;;;4.70;99.90;;;;;;4442616;32;20331;-74
2021/03/01 07:12:35;;;;;;;;;;;4.70;99.90;;;;;;4434331;32;19940;-74
2021/03/01 07:15:00;;;;;;;;;;;4.80;99.90;;;;;;4441073;32;19951;-73
2021/03/01 07:17:26;;;;;;;;;;;5.00;99.90;;;;;;4438176;32;19952;-73
2021/03/01 07:19:51;;;;;;;;;;;4.90;99.90;;;;;;4439826;32;20362;-73
2021/03/01 07:22:16;;;;;;;;;;;5.00;99.90;;;;;;4438714;32;19953;-73
2021/03/01 07:24:43;;;;;;;;;;;4.90;99.90;;;;;;4433490;32;19956;-73
2021/03/01 07:27:09;;;;;;;;;;;4.90;99.90;;;;;;4438392;32;20009;-73
2021/03/01 07:29:37;;;;;;;;;;;5.00;99.90;;;;;;4431081;32;19987;-74
2021/03/01 07:32:04;;;;;;;;;;;5.00;99.90;;;;;;4442075;32;19944;-73
2021/03/01 07:34:29;;;;;;;;;;;5.10;99.90;;;;;;4439252;32;19944;-73
2021/03/01 07:36:56;;;;;;;;;;;5.10;99.90;;;;;;4437142;32;20441;-73
2021/03/01 07:39:22;;;;;;;;;;;5.10;99.90;;;;;;4439180;32;19973;-73
2021/03/01 07:41:48;;;;;;;;;;;5.20;99.90;;;;;;4439191;32;19949;-75
2021/03/01 07:44:14;;;;;;;;;;;5.20;99.90;;;;;;4437180;32;20034;-73
2021/03/01 07:46:41;;;;;;;;;;;5.20;99.90;;;;;;4434770;32;19956;-73
2021/03/01 07:49:10;;;;;;;;;;;5.20;99.90;;;;;;4443034;32;20284;-73
2021/03/01 07:51:45;;;;;;;;;;;5.10;99.90;;;;;;4433026;32;20280;-73
2021/03/01 07:54:12;;;;;;;;;;;5.20;99.90;;;;;;4442425;32;20023;-73
2021/03/01 07:56:38;;;;;;;;;;;5.20;99.90;;;;;;4437471;32;19953;-73
2021/03/01 07:59:06;;;;;;;;;;;5.20;99.90;;;;;;4436604;32;19941;-73
2021/03/01 08:01:31;;;;;;;;;;;5.30;99.90;;;;;;4437443;32;20019;-73
2021/03/01 08:03:57;;;;;;;;;;;5.40;99.90;;;;;;4442635;32;19955;-73
2021/03/01 08:06:23;;;;;;;;;;;5.60;99.90;;;;;;4436193;32;19959;-73
2021/03/01 08:08:49;;;;;;;;;;;5.70;99.90;;;;;;4434859;32;19945;-73
2021/03/01 08:11:15;;;;;;;;;;;5.60;99.90;;;;;;4436839;32;19952;-73
2021/03/01 08:13:41;;;;;;;;;;;5.60;99.90;;;;;;4440405;32;19968;-74
2021/03/01 08:16:23;;;;;;;;;;;5.70;99.90;;;;;;4443047;32;20330;-74
2021/03/01 08:18:50;;;;;;;;;;;5.60;99.90;;;;;;4432766;32;19937;-74
2021/03/01 08:21:16;;;;;;;;;;;5.50;99.90;;;;;;4441108;32;19959;-74
2021/03/01 08:23:41;;;;;;;;;;;5.50;99.90;;;;;;4432593;32;19949;-74
2021/03/01 08:26:07;;;;;;;;;;;5.60;99.90;;;;;;4435982;32;19964;-74
2021/03/01 08:28:35;;;;;;;;;;;5.80;99.90;;;;;;4432139;32;19945;-74
2021/03/01 08:31:09;;;;;;;;;;;5.90;99.90;;;;;;4435753;32;19944;-74
2021/03/01 08:33:36;;;;;;;;;;;6.00;99.90;;;;;;4444076;32;19951;-74
2021/03/01 08:36:02;;;;;;;;;;;6.10;99.90;;;;;;4442210;32;19945;-74
2021/03/01 08:38:46;;;;;;;;;;;6.10;99.90;;;;;;4436006;32;19949;-74
2021/03/01 08:41:13;;;;;;;;;;;6.10;99.90;;;;;;4433897;32;20005;-74
2021/03/01 08:43:39;;;;;;;;;;;6.10;99.90;;;;;;4439160;32;20412;-74
2021/03/01 08:46:07;;;;;;;;;;;6.10;99.90;;;;;;4441604;32;19959;-74
2021/03/01 08:48:38;;;;;;;;;;;6.10;99.90;;;;;;4433287;32;19992;-74
2021/03/01 08:51:04;;;;;;;;;;;6.20;99.90;;;;;;4441655;32;19948;-74
2021/03/01 08:53:29;;;;;;;;;;;6.20;99.90;;;;;;4442140;32;20358;-74
2021/03/01 08:55:56;;;;;;;;;;;6.20;99.90;;;;;;4442662;32;20004;-74
2021/03/01 08:58:22;;;;;;;;;;;6.20;99.90;;;;;;4437377;32;19953;-74
2021/03/01 09:00:53;;;;;;;;;;;6.10;99.90;;;;;;4435810;32;20099;-74
2021/03/01 09:03:21;;;;;;;;;;;6.00;99.90;;;;;;4436937;32;20029;-74
2021/03/01 09:05:47;;;;;;;;;;;6.10;99.90;;;;;;4440806;32;20324;-73
2021/03/01 09:08:13;;;;;;;;;;;6.10;99.90;;;;;;4437531;32;19961;-74
2021/03/01 09:10:45;;;;;;;;;;;6.20;99.90;;;;;;4435986;32;19944;-74
2021/03/01 09:13:19;;;;;;;;;;;6.20;99.90;;;;;;4435861;32;19952;-74
2021/03/01 09:15:45;;;;;;;;;;;6.10;99.90;;;;;;4437964;32;19960;-74
2021/03/01 09:18:11;;;;;;;;;;;6.10;99.90;;;;;;4428607;32;19941;-74
2021/03/01 09:20:38;;;;;;;;;;;6.20;99.90;;;;;;4430496;32;19956;-74
2021/03/01 09:23:05;;;;;;;;;;;6.20;99.90;;;;;;4434519;32;20015;-74
2021/03/01 09:25:31;;;;;;;;;;;6.20;99.90;;;;;;4426203;32;19959;-74
2021/03/01 09:27:57;;;;;;;;;;;6.30;99.90;;;;;;4430760;32;19952;-74
2021/03/01 09:30:23;;;;;;;;;;;6.40;99.90;;;;;;4436918;32;19956;-74
2021/03/01 09:32:57;;;;;;;;;;;6.50;99.90;;;;;;4431677;32;20065;-74
2021/03/01 09:35:22;;;;;;;;;;;6.50;99.90;;;;;;4431915;32;19949;-74
2021/03/01 09:37:48;;;;;;;;;;;6.50;99.90;;;;;;4439863;32;20011;-74
2021/03/01 09:40:17;;;;;;;;;;;6.50;99.90;;;;;;4438934;32;19952;-74
2021/03/01 09:42:46;;;;;;;;;;;6.50;99.90;;;;;;4435956;32;19941;-74
2021/03/01 09:45:12;;;;;;;;;;;6.50;99.90;;;;;;4436895;32;20293;-74
2021/03/01 09:47:37;;;;;;;;;;;6.60;99.90;;;;;;4442100;32;19952;-74
2021/03/01 09:50:03;;;;;;;;;;;6.70;99.90;;;;;;4435092;32;19957;-74
2021/03/01 09:52:28;;;;;;;;;;;6.60;99.90;;;;;;4428599;32;19941;-74
2021/03/01 09:54:54;;;;;;;;;;;6.60;99.90;;;;;;4438849;32;19952;-74
2021/03/01 09:57:27;;;;;;;;;;;6.70;99.90;;;;;;4427176;32;20012;-74
2021/03/01 09:59:53;;;;;;;;;;;6.60;99.90;;;;;;4427007;32;20368;-73
2021/03/01 10:02:20;;;;;;;;;;;6.60;99.90;;;;;;4430382;32;19978;-75
2021/03/01 10:04:46;;;;;;;;;;;6.70;99.90;;;;;;4439645;32;19960;-75
2021/03/01 10:07:16;;;;;;;;;;;6.80;99.90;;;;;;4432397;32;19953;-75
2021/03/01 10:09:41;;;;;;;;;;;6.90;99.90;;;;;;4430993;32;19961;-75
2021/03/01 10:12:07;;;;;;;;;;;6.90;99.90;;;;;;4431282;32;19974;-73
2021/03/01 10:14:32;;;;;;;;;;;7.00;99.90;;;;;;4429706;32;20033;-74
2021/03/01 10:16:58;;;;;;;;;;;6.90;99.90;;;;;;4426704;32;20582;-73
2021/03/01 10:19:24;;;;;;;;;;;6.90;99.90;;;;;;4430451;32;20416;-74
2021/03/01 10:21:50;;;;;;;;;;;6.70;99.90;;;;;;4432787;32;19953;-73
2021/03/01 10:24:18;;;;;;;;;;;6.70;99.90;;;;;;4426639;32;19987;-74
2021/03/01 10:26:52;;;;;;;;;;;6.90;99.90;;;;;;4433363;32;19997;-74
2021/03/01 10:29:18;;;;;;;;;;;7.10;99.90;;;;;;4427907;32;19949;-74
2021/03/01 10:31:43;;;;;;;;;;;7.10;99.90;;;;;;4427097;32;20036;-74
2021/03/01 10:34:11;;;;;;;;;;;7.20;99.90;;;;;;4425674;32;19952;-74
2021/03/01 10:36:41;;;;;;;;;;;7.20;99.90;;;;;;4429300;32;19949;-74
2021/03/01 10:45:21;;;;;;;1.60;0.88;;;7.00;99.90;;;;;;4467613;32;67887;-56
2021/03/01 10:47:59;;;;;;;0.60;0.60;;;7.10;99.90;;;;;;4452208;32;20080;-57
2021/03/01 10:50:24;;;;;;;0.47;0.47;;;7.20;99.90;;;;;;4454294;32;20052;-56
2021/03/01 10:52:50;;;;;;;10.05;1.27;;;7.40;99.90;;;;;;4446897;32;20090;-53
2021/03/01 10:55:16;;;;;;;0.50;0.50;;;7.30;99.90;;;;;;4448946;32;20061;-54
2021/03/01 10:57:41;;;;;;;0.77;0.77;;;7.20;99.90;;;;;;4450692;32;20599;-55
2021/03/01 11:00:07;;;;;;;4.00;1.27;;;7.20;99.90;;;;;;4446712;32;20065;-54
2021/03/01 11:02:33;;;;;;;0.88;0.82;;;7.20;99.90;;;;;;4450110;32;20065;-56
2021/03/01 11:04:58;;;;;;;0.95;0.77;;;7.20;99.90;;;;;;4444579;32;20065;-56
2021/03/01 11:07:26;;;;;;;1.42;0.65;;;7.40;99.90;;;;;;4443937;32;20119;-57
2021/03/01 11:09:51;;;;;;;0.62;0.62;;;7.40;99.90;;;;;;4444578;32;20115;-55
2021/03/01 11:12:17;;;;;;;0.52;0.52;;;7.30;99.90;;;;;;4442372;32;20064;-55
2021/03/01 11:14:42;;;;;;;1.42;0.90;;;7.30;99.90;;;;;;4450368;32;20077;-56
2021/03/01 11:17:08;;;;;;;0.70;0.70;;;7.40;99.90;;;;;;4451475;32;20290;-56
2021/03/01 11:19:34;;;;;;;2.83;1.35;;;7.60;99.90;;;;;;4449757;32;20081;-56
2021/03/01 11:21:59;;;;;;;0.50;0.50;;;7.80;99.90;;;;;;4452725;32;20070;-56
2021/03/01 11:24:25;;;;;;;11.50;1.15;;;7.80;99.90;;;;;;4448904;32;20554;-55
2021/03/01 11:26:52;;;;;;;4.07;1.15;;;7.80;99.90;;;;;;4436935;32;20064;-56
2021/03/01 11:29:19;;;;;;;5.65;1.92;;;7.80;99.90;;;;;;4429375;32;20065;-55
2021/03/01 11:31:44;;;;;;;5.47;1.02;;;8.00;99.90;;;;;;4439650;32;20061;-56
2021/03/01 11:34:10;;;;;;;2.08;0.95;;;8.10;99.90;;;;;;4424381;32;20102;-56
2021/03/01 11:36:37;;;;;;;0.50;0.50;;;8.10;99.90;;;;;;4436398;32;20081;-57
2021/03/01 11:39:05;;;;;;;1.27;1.10;;;8.70;99.90;;;;;;4434625;32;20069;-53
2021/03/01 11:41:31;;;;;;;2.53;0.65;;;9.30;99.90;;;;;;4438662;32;20078;-56
2021/03/01 11:43:56;;;;;;;3.50;1.58;;;9.50;99.90;;;;;;4434472;32;20066;-56
2021/03/01 11:46:22;;;;;;;17.27;1.12;;;9.30;99.90;;;;;;4429720;32;20061;-55
2021/03/01 11:48:48;;;;;;;0.65;0.65;;;9.40;99.90;;;;;;4431806;32;20054;-55
2021/03/01 11:51:15;;;;;;;2.40;1.70;;;9.50;99.90;;;;;;4428067;32;20940;-57
2021/03/01 11:53:41;;;;;;;2.37;0.88;;;9.60;99.90;;;;;;4416907;32;20066;-55
2021/03/01 11:56:07;;;;;;;0.50;0.50;;;9.80;99.90;;;;;;4409890;32;20421;-57
2021/03/01 11:58:33;;;;;;;1.75;0.55;;;9.80;99.90;;;;;;4420213;32;20077;-57
2021/03/01 12:00:59;;;;;;;2.03;0.93;;;9.80;99.90;;;;;;4419340;32;20603;-53
2021/03/01 12:03:25;;;;;;;0.52;0.52;;;10.20;99.90;;;;;;4420873;32;20070;-57
2021/03/01 12:05:50;;;;;;;7.18;0.88;;;10.60;99.90;;;;;;4420527;32;20082;-56
2021/03/01 12:08:16;;;;;;;0.65;0.65;;;10.90;99.90;;;;;;4418805;32;20054;-57
2021/03/01 12:10:41;;;;;;;0.55;0.55;;;10.80;99.90;;;;;;4418578;32;20090;-55
2021/03/01 12:13:07;;;;;;;0.70;0.70;;;11.20;99.90;;;;;;4420940;32;20120;-57
2021/03/01 12:15:32;;;;;;;4.32;0.98;;;11.50;99.90;;;;;;4416623;32;20560;-55
2021/03/01 12:17:58;;;;;;;0.65;0.65;;;11.60;99.90;;;;;;4420655;32;20069;-56
2021/03/01 12:20:24;;;;;;;0.57;0.57;;;12.00;99.90;;;;;;4415389;32;20070;-57
2021/03/01 12:22:50;;;;;;;0.70;0.70;;;11.40;99.90;;;;;;4421267;32;20373;-55
2021/03/01 12:25:15;;;;;;;0.52;0.52;;;11.50;99.90;;;;;;4420350;32;20061;-56
2021/03/01 12:27:41;;;;;;;2.47;1.50;;;11.70;99.90;;;;;;4420127;32;20058;-56
2021/03/01 12:30:07;;;;;;;0.40;0.40;;;11.90;99.90;;;;;;4421408;32;20066;-57
2021/03/01 12:32:33;;;;;;;0.40;0.40;;;12.00;99.90;;;;;;4421393;32;20185;-55
2021/03/01 12:34:59;;;;;;;1.42;0.77;;;11.70;99.90;;;;;;4417481;32;20066;-57
2021/03/01 12:37:27;;;;;;;1.58;0.73;;;12.30;99.90;;;;;;4420245;32;20384;-58
2021/03/01 12:39:53;;;;;;;3.75;1.15;;;12.70;99.90;;;;;;4418911;32;20619;-53
2021/03/01 12:42:18;;;;;;;0.73;0.73;;;12.90;99.90;;;;;;4419428;32;20069;-56
2021/03/01 12:44:44;;;;;;;0.70;0.70;;;13.20;99.90;;;;;;4418511;32;20437;-56
2021/03/01 12:47:09;;;;;;;3.12;0.95;;;13.20;99.90;;;;;;4423145;32;20108;-57
2021/03/01 12:49:35;;;;;;;0.50;0.50;;;12.80;99.90;;;;;;4406310;32;20069;-55
2021/03/01 12:52:00;;;;;;;1.00;0.93;;;12.80;99.90;;;;;;4418979;32;20077;-55
2021/03/01 12:54:26;;;;;;;1.23;0.88;;;12.60;99.90;;;;;;4420839;32;20054;-57
2021/03/01 12:56:51;;;;;;;1.50;0.68;;;12.80;99.90;;;;;;4422228;32;20057;-56
2021/03/01 12:59:17;;;;;;;0.40;0.40;;;13.40;99.90;;;;;;4419831;32;20112;-57
2021/03/01 13:01:42;;;;;;;0.62;0.62;;;13.60;99.90;;;;;;4419370;32;20065;-57
2021/03/01 13:04:08;;;;;;;0.98;0.98;;;13.50;99.90;;;;;;4422374;32;20413;-58
2021/03/01 13:06:33;;;;;;;1.17;0.70;;;14.20;99.90;;;;;;4420082;32;20065;-55
2021/03/01 13:08:59;;;;;;;0.52;0.50;;;13.90;99.90;;;;;;4419766;32;20498;-57
2021/03/01 13:11:25;;;;;;;1.33;0.90;;;13.20;99.90;;;;;;4420015;32;20057;-57
2021/03/01 13:13:50;;;;;;;0.75;0.75;;;13.50;99.90;;;;;;4420212;32;20598;-56
2021/03/01 13:16:16;;;;;;;0.52;0.52;;;13.40;99.90;;;;;;4421425;32;20450;-57
2021/03/01 13:18:41;;;;;;;1.65;0.70;;;13.60;99.90;;;;;;4419835;32;20062;-55
2021/03/01 13:21:07;;;;;;;0.62;0.62;;;13.90;99.90;;;;;;4418481;32;20436;-56
2021/03/01 13:23:33;;;;;;;0.50;0.50;;;14.20;99.90;;;;;;4420945;32;20062;-55
2021/03/01 13:25:59;;;;;;;0.70;0.70;;;13.90;99.90;;;;;;4421878;32;20061;-53
2021/03/01 13:28:24;;;;;;;0.35;0.30;;;13.60;99.90;;;;;;4417580;32;20077;-56
2021/03/01 13:30:51;;;;;;;1.77;1.20;;;13.30;99.90;;;;;;4387100;32;20069;-55
2021/03/01 13:33:16;;;;;;;0.57;0.43;;;13.00;99.90;;;;;;4426975;32;20088;-55
2021/03/01 13:35:42;;;;;;;0.57;0.57;;;13.00;99.90;;;;;;4421145;32;20073;-55
2021/03/01 13:38:08;;;;;;;0.70;0.70;;;12.70;99.90;;;;;;4420376;32;20073;-57
2021/03/01 13:40:34;;;;;;;3.70;0.90;;;12.60;99.90;;;;;;4419896;32;20138;-53
2021/03/01 13:42:59;;;;;;;7.93;1.55;;;12.20;99.90;;;;;;4409081;32;20120;-56
2021/03/01 13:45:25;;;;;;;2.35;1.05;;;12.10;99.90;;;;;;4420845;32;20400;-56
2021/03/01 13:47:50;;;;;;;2.12;0.75;;;11.90;99.90;;;;;;4420309;32;20124;-56
2021/03/01 13:50:16;;;;;;;0.68;0.68;;;11.80;99.90;;;;;;4423079;32;20443;-55
2021/03/01 13:52:42;;;;;;;0.43;0.43;;;11.80;99.90;;;;;;4426345;32;20069;-57
2021/03/01 13:55:08;;;;;;;0.77;0.77;;;11.60;99.90;;;;;;4454649;26;20061;-73
2021/03/01 13:57:34;;;;;;;1.25;0.57;;;12.30;99.90;;;;;;4413226;32;20062;-74
2021/03/01 14:00:00;;;;;;;0.57;0.57;;;12.70;99.90;;;;;;4412577;32;20596;-74
2021/03/01 14:02:26;;;;;;;0.60;0.60;;;13.00;99.90;;;;;;4413986;32;20805;-74
2021/03/01 14:04:51;;;;;;;1.83;0.65;;;13.20;99.90;;;;;;4413321;32;20508;-74
2021/03/01 14:07:17;;;;;;;0.80;0.80;;;13.40;99.90;;;;;;4411646;32;20082;-74